Tropical Cyclones
[Index]
Main Index Home Page Stock Weather Photos Extreme Storms Discussion Storm News and Storm Chasing Reports Tropical Cyclones / Hurricanes / Typhoons Weather Data and Links Wild Fires / Bushfires Weather Observation Techniques Weather Picture Catalogue Tornado Pictures and Reports Stock Video Footage and DVDs for sale
Season 2014-2015 Tropical Cyclone ADJALI Track Map
Season 2014-2015 Summaries (Operational Data): [AU] [SIO] [SPAC] [SH]
<<- Previous TC | 2014-2015 Season | Next TC ->>

click for intensity scale information  Lat/long Grid: Show Hide

 Date Labels: Show Hide

Operational Tropical Cyclone Data : JTWC Advisories

Name: ADJALI
Number: 1501

13 Nov 2014 18:00 UTC to 25 Nov 2014 06:00 UTC

    date/time    lat    long     hPa   cat  kts
2014-11-13 18    6.9    67.5    1010         15          
2014-11-14 00    7.0    67.7    1010         15          
2014-11-14 06    7.1    67.9    1010         15          
2014-11-14 12    6.7    67.8    1010         15          
2014-11-14 18    6.2    67.1    1010         15          
2014-11-15 00    5.9    66.1    1007         20          
2014-11-15 06    6.5    65.9    1007         25          
2014-11-15 12    7.2    65.9    1004         25          
2014-11-15 18    7.4    66.4    1007         20          
2014-11-16 00    7.8    66.5    1007         20          
2014-11-16 06    8.1    66.4    1000         25          
2014-11-16 12    8.4    66.5    1000         30          
2014-11-16 18    8.9    66.7     993    1    40          
2014-11-17 00    9.1    67.0     989    1    45          
2014-11-17 06    9.2    67.3     982    2    55          
2014-11-17 12    9.6    67.8     982    2    55          
2014-11-17 18    9.6    68.5     978    2    60          
2014-11-18 00   10.2    69.3     974    3    65          
2014-11-18 06   10.9    69.8     981    2    60          
2014-11-18 12   11.3    70.3     978    2    60          
2014-11-18 18   11.6    70.3     982    2    55          
2014-11-19 00   12.1    70.3     982    2    55          
2014-11-19 06   12.8    70.5     982    2    55          
2014-11-19 12   13.0    70.5     988    1    45          
2014-11-19 18   13.3    70.0     996    1    35          
2014-11-20 00   13.2    69.8    1000         30          
2014-11-20 06   14.0    69.4    1004         25          
2014-11-20 12   14.3    68.6    1004         25          
2014-11-20 18   14.3    67.6    1004         25          
2014-11-21 00   14.5    66.3    1007         20          
2014-11-21 06   14.9    65.4    1007         20          
2014-11-21 12   14.9    63.5    1007         20          
2014-11-21 18   14.6    62.5    1007         20          
2014-11-22 00   14.5    61.6    1007         20          
2014-11-22 06   14.2    60.6    1007         20          
2014-11-22 12   14.1    59.6    1007         20          
2014-11-22 18   14.0    58.8    1007         20          
2014-11-23 00   13.8    56.9    1007         20          
2014-11-23 06   13.7    56.2    1007         20          
2014-11-23 12   13.6    55.3    1007         20          
2014-11-23 18   13.3    53.9    1007         20          
2014-11-24 00   13.2    52.5    1007         20          
2014-11-24 06   12.7    51.2    1007         20          
2014-11-24 12   11.9    50.4    1007         20          
2014-11-24 18   10.7    49.2    1007         20          
2014-11-25 00    9.8    48.2    1007         20          
2014-11-25 06    9.2    47.4    1007         20          
Winds are 10-min average.

Tropical cyclone tracks developed by Michael Bath using operational warnings and advisories and Google Maps.


[Australian Severe Weather index] [Copyright Notice] [Email Contacts] [Search This Site] [Privacy Policy]
Document: tropical_cyclone_adjali.htm Updated: 2 May 2017